createdAt,value
2019-01-21T05:01:52.896Z,100097.99
2019-01-21T05:04:23.640Z,100100.70
2019-01-21T05:07:26.221Z,100093.83
2019-01-21T05:10:06.403Z,100097.97
2019-01-21T05:12:51.707Z,100103.73
2019-01-21T05:15:47.786Z,100100.63
2019-01-21T05:18:40.942Z,100113.08
2019-01-21T05:21:40.712Z,100116.28
2019-01-21T05:24:24.109Z,100126.78
2019-01-21T05:27:12.508Z,100136.23
2019-01-21T05:29:30.634Z,100137.47
2019-01-21T05:32:10.028Z,100140.92
2019-01-21T05:34:55.206Z,100123.50
2019-01-21T05:37:23.525Z,100113.48
2019-01-21T05:39:56.843Z,100106.41
2019-01-21T05:42:43.887Z,100116.11
2019-01-21T05:45:13.031Z,100125.89
2019-01-21T05:48:01.716Z,100123.64
2019-01-21T05:50:53.901Z,100125.04
2019-01-21T05:53:29.711Z,100103.39
2019-01-21T05:56:01.471Z,100098.14
2019-01-21T05:58:32.469Z,100107.50
2019-01-21T06:01:17.402Z,100104.19
2019-01-21T06:03:36.605Z,100095.42
2019-01-21T06:06:06.722Z,100078.48
2019-01-21T06:08:55.233Z,100103.98
2019-01-21T06:11:24.782Z,100101.55
2019-01-21T06:14:10.110Z,100092.50
2019-01-21T06:16:57.163Z,100094.57
2019-01-21T06:19:43.136Z,100090.50
2019-01-21T06:22:32.608Z,100093.32
2019-01-21T06:25:23.286Z,100096.78
2019-01-21T06:27:47.716Z,100095.20
2019-01-21T06:31:02.863Z,100089.30
2019-01-21T06:34:03.088Z,100097.63
2019-01-21T06:36:27.541Z,100102.20
2019-01-21T06:39:10.461Z,100097.31
2019-01-21T06:42:00.282Z,100088.92
2019-01-21T06:44:37.819Z,100095.86
2019-01-21T06:47:31.034Z,100095.95
2019-01-21T06:50:15.809Z,100095.02
2019-01-21T06:53:05.880Z,100105.39
2019-01-21T06:55:25.452Z,100111.03
2019-01-21T06:58:02.900Z,100103.03
2019-01-21T07:00:27.091Z,100098.55
2019-01-21T07:03:19.345Z,100107.09
2019-01-21T07:06:00.936Z,100105.63
2019-01-21T07:08:49.619Z,100109.98
2019-01-21T07:11:34.199Z,100119.88
2019-01-21T07:14:07.428Z,100125.23
2019-01-21T07:16:43.023Z,100132.70
2019-01-21T07:19:38.132Z,100131.91
2019-01-21T07:22:18.174Z,100139.56
2019-01-21T07:25:01.092Z,100150.48
2019-01-21T07:27:51.186Z,100149.93
2019-01-21T07:30:43.862Z,100148.72
2019-01-21T07:33:35.739Z,100145.73
2019-01-21T07:36:31.145Z,100143.58
2019-01-21T07:39:14.929Z,100142.81
2019-01-21T07:41:48.187Z,100139.36
2019-01-21T07:44:33.279Z,100132.41
2019-01-21T07:47:14.540Z,100142.53
2019-01-21T07:50:17.505Z,100146.13
2019-01-21T07:52:41.511Z,100141.03
2019-01-21T07:55:06.059Z,100153.66
2019-01-21T07:58:05.505Z,100156.78
2019-01-21T08:00:18.153Z,100162.41
2019-01-21T08:03:00.414Z,100158.07
2019-01-21T08:05:42.133Z,100158.14
2019-01-21T08:08:20.162Z,100158.32
2019-01-21T08:10:53.863Z,100155.98
2019-01-21T08:13:35.433Z,100145.84
2019-01-21T08:16:28.796Z,100149.53
2019-01-21T08:19:12.844Z,100156.63
2019-01-21T08:21:59.459Z,100149.80
2019-01-21T08:24:40.996Z,100136.88
2019-01-21T08:27:29.795Z,100122.93
2019-01-21T08:29:54.258Z,100117.48
2019-01-21T08:32:17.340Z,100116.25
2019-01-21T08:34:48.509Z,100114.13
2019-01-21T08:37:33.954Z,100115.95
2019-01-21T08:40:26.824Z,100119.88
2019-01-21T08:42:56.211Z,100130.78
2019-01-21T08:45:40.478Z,100129.02
2019-01-21T08:48:02.149Z,100129.05
2019-01-21T08:50:33.833Z,100130.19
2019-01-21T08:53:18.112Z,100142.66
2019-01-21T08:55:43.132Z,100142.89
2019-01-21T08:58:23.650Z,100133.02
2019-01-21T09:01:05.275Z,100130.20
2019-01-21T09:03:59.869Z,100129.39
2019-01-21T09:06:32.000Z,100128.30
2019-01-21T09:09:33.902Z,100125.84
2019-01-21T09:12:11.499Z,100137.98
2019-01-21T09:15:05.236Z,100139.02
2019-01-21T09:17:52.156Z,100148.25
2019-01-21T09:20:49.860Z,100139.59
2019-01-21T09:23:24.429Z,100143.22
2019-01-21T09:25:47.398Z,100142.27
2019-01-21T09:28:33.751Z,100154.81
2019-01-21T09:31:28.264Z,100163.11
2019-01-21T09:34:01.622Z,100151.24
2019-01-21T09:36:39.089Z,100179.56
2019-01-21T09:39:10.042Z,100177.81
2019-01-21T09:41:57.451Z,100165.47
2019-01-21T09:44:44.700Z,100176.70
2019-01-21T09:46:50.163Z,100182.72
2019-01-21T09:48:54.311Z,100189.06
2019-01-21T09:51:07.163Z,100184.45
2019-01-21T09:53:14.603Z,100180.16
2019-01-21T09:55:23.089Z,100182.75
2019-01-21T09:57:30.776Z,100174.78
2019-01-21T09:59:38.016Z,100171.75
2019-01-21T10:01:45.615Z,100172.37
2019-01-21T10:03:53.052Z,100179.36
2019-01-21T10:06:06.790Z,100184.55
2019-01-21T10:08:47.384Z,100198.32
2019-01-21T10:11:18.615Z,100199.20
2019-01-21T10:14:18.187Z,100205.84
2019-01-21T10:16:48.373Z,100205.41
2019-01-21T10:19:50.350Z,100218.09
2019-01-21T10:22:24.694Z,100218.62
2019-01-21T10:25:16.931Z,100229.53
2019-01-21T10:28:16.194Z,100225.46
2019-01-21T10:31:15.207Z,100225.59
2019-01-21T10:33:47.895Z,100240.41
2019-01-21T10:36:47.136Z,100246.77
2019-01-21T10:39:37.310Z,100238.44
2019-01-21T10:42:04.968Z,100243.26
2019-01-21T10:44:37.907Z,100235.77
2019-01-21T10:47:24.872Z,100237.39
2019-01-21T10:49:46.216Z,100240.00
2019-01-21T10:52:48.869Z,100238.28
2019-01-21T10:55:24.370Z,100257.13
2019-01-21T10:57:43.530Z,100264.53
2019-01-21T11:00:23.587Z,100258.92
2019-01-21T11:03:22.933Z,100266.91
2019-01-21T11:06:04.332Z,100273.97
2019-01-21T11:08:46.592Z,100279.29
2019-01-21T11:11:23.057Z,100277.00
2019-01-21T11:14:03.710Z,100288.22
2019-01-21T11:16:27.381Z,100285.61
2019-01-21T11:19:10.729Z,100281.29
2019-01-21T11:22:06.656Z,100272.84
2019-01-21T11:24:40.659Z,100260.56
2019-01-21T11:27:34.646Z,100261.77
2019-01-21T11:30:30.688Z,100264.50
2019-01-21T11:33:26.521Z,100262.50
2019-01-21T11:36:19.826Z,100264.84
2019-01-21T11:38:59.419Z,100262.28
2019-01-21T11:41:29.143Z,100272.02
2019-01-21T11:44:22.583Z,100285.13
2019-01-21T11:47:10.578Z,100295.88
2019-01-21T11:49:51.829Z,100298.63
2019-01-21T11:52:47.504Z,100304.33
2019-01-21T11:55:29.339Z,100314.91
2019-01-21T11:58:16.648Z,100324.13
2019-01-21T12:00:58.421Z,100325.53
2019-01-21T12:03:48.258Z,100329.34
2019-01-21T12:06:09.698Z,100328.58
2019-01-21T12:08:51.453Z,100326.29
2019-01-21T12:11:34.807Z,100314.84
2019-01-21T12:14:18.681Z,100312.48
2019-01-21T12:17:00.364Z,100325.50
2019-01-21T12:19:36.525Z,100323.73
2019-01-21T12:22:05.232Z,100332.48
2019-01-21T12:24:26.197Z,100334.97
2019-01-21T12:26:50.581Z,100346.70
2019-01-21T12:29:16.296Z,100346.16
2019-01-21T12:31:50.299Z,100342.27
2019-01-21T12:34:17.703Z,100337.52
2019-01-21T12:36:51.267Z,100342.33
2019-01-21T12:39:44.271Z,100358.32
2019-01-21T12:42:20.241Z,100362.20
2019-01-21T12:45:03.134Z,100359.77
2019-01-21T12:47:25.442Z,100347.91
2019-01-21T12:50:27.017Z,100354.42
2019-01-21T12:53:01.787Z,100360.10
2019-01-21T12:55:50.315Z,100354.83
2019-01-21T12:58:49.962Z,100358.38
2019-01-21T13:01:32.502Z,100351.89
2019-01-21T13:04:31.924Z,100369.36
2019-01-21T13:07:09.267Z,100372.58
2019-01-21T13:09:25.753Z,100366.02
2019-01-21T13:11:50.990Z,100354.11
2019-01-21T13:14:35.692Z,100347.78
2019-01-21T13:16:57.995Z,100363.94
2019-01-21T13:19:36.698Z,100370.44
2019-01-21T13:22:19.526Z,100375.09
2019-01-21T13:25:03.304Z,100366.88
2019-01-21T13:27:53.155Z,100367.02
2019-01-21T13:30:39.277Z,100366.88
2019-01-21T13:33:24.294Z,100365.20
2019-01-21T13:36:08.280Z,100354.04
2019-01-21T13:38:36.993Z,100356.10
2019-01-21T13:41:33.717Z,100371.36
2019-01-21T13:44:02.850Z,100369.65
2019-01-21T13:46:36.397Z,100369.59
2019-01-21T13:49:08.351Z,100367.28
2019-01-21T13:51:59.981Z,100367.94
2019-01-21T13:54:41.390Z,100377.66
2019-01-21T13:57:06.329Z,100391.95
2019-01-21T13:59:50.416Z,100386.34
2019-01-21T14:02:21.273Z,100392.56
2019-01-21T14:04:53.413Z,100389.88
2019-01-21T14:07:25.755Z,100386.91
2019-01-21T14:10:11.864Z,100401.08
2019-01-21T14:12:59.104Z,100409.15
2019-01-21T14:15:42.494Z,100419.23
2019-01-21T14:18:35.287Z,100420.00
2019-01-21T14:20:52.263Z,100422.28
2019-01-21T14:23:29.749Z,100429.95
2019-01-21T14:26:02.339Z,100426.21
2019-01-21T14:28:40.760Z,100431.64
2019-01-21T14:31:30.366Z,100418.34
2019-01-21T14:34:11.736Z,100416.91
2019-01-21T14:36:29.512Z,100422.73
2019-01-21T14:39:22.530Z,100423.86
2019-01-21T14:41:55.708Z,100426.30
2019-01-21T14:44:32.395Z,100429.42
2019-01-21T14:47:37.577Z,100418.88
2019-01-21T14:50:19.322Z,100430.90
2019-01-21T14:53:08.588Z,100434.16
2019-01-21T14:55:46.602Z,100422.95
2019-01-21T14:58:25.412Z,100426.78
2019-01-21T15:01:00.715Z,100436.52
2019-01-21T15:03:50.568Z,100440.37
2019-01-21T15:06:11.585Z,100433.05
2019-01-21T15:08:33.841Z,100427.75
2019-01-21T15:11:18.215Z,100430.16
2019-01-21T15:14:15.438Z,100423.90
2019-01-21T15:16:53.001Z,100425.22
2019-01-21T15:19:27.032Z,100418.75
2019-01-21T15:22:24.175Z,100422.93
2019-01-21T15:25:13.664Z,100414.36
2019-01-21T15:28:08.670Z,100415.30
2019-01-21T15:30:52.556Z,100407.98
2019-01-21T15:33:52.537Z,100408.06
2019-01-21T15:36:39.408Z,100406.87
2019-01-21T15:39:28.197Z,100402.73
2019-01-21T15:42:31.174Z,100403.82
2019-01-21T15:45:49.895Z,100411.12
2019-01-21T15:48:28.773Z,100409.14
2019-01-21T15:51:21.923Z,100404.04
2019-01-21T15:54:24.598Z,100397.08
2019-01-21T15:57:02.122Z,100412.62
2019-01-21T16:00:11.292Z,100401.12
2019-01-21T16:02:53.732Z,100407.06
2019-01-21T16:05:28.957Z,100410.89
2019-01-21T16:07:47.831Z,100413.47
2019-01-21T16:10:37.873Z,100418.56
2019-01-21T16:13:33.528Z,100411.84
2019-01-21T16:16:18.755Z,100419.19
2019-01-21T16:18:55.653Z,100414.63
2019-01-21T16:21:35.675Z,100410.24
2019-01-21T16:23:57.737Z,100417.48
2019-01-21T16:26:13.837Z,100423.09
2019-01-21T16:28:31.582Z,100415.98
2019-01-21T16:30:51.272Z,100420.76
2019-01-21T16:33:33.009Z,100416.07
2019-01-21T16:36:16.317Z,100415.60
2019-01-21T16:38:42.211Z,100402.67
2019-01-21T16:41:36.886Z,100400.77
2019-01-21T16:43:44.056Z,100404.61
2019-01-21T16:45:51.317Z,100391.39
2019-01-21T16:47:59.415Z,100395.45
2019-01-21T16:50:08.055Z,100390.02
2019-01-21T16:52:16.241Z,100380.01
2019-01-21T16:54:23.463Z,100371.41
2019-01-21T16:56:31.465Z,100371.36
2019-01-21T16:58:39.625Z,100372.72
2019-01-21T17:00:46.918Z,100371.04
2019-01-21T17:02:54.145Z,100367.65
2019-01-21T17:05:09.553Z,100381.70
2019-01-21T17:07:21.265Z,100376.14
2019-01-21T17:09:33.461Z,100368.12
2019-01-21T17:12:16.367Z,100370.77
2019-01-21T17:14:28.734Z,100363.66
2019-01-21T17:16:42.381Z,100353.07
2019-01-21T17:18:54.593Z,100359.65
2019-01-21T17:21:31.264Z,100355.87
2019-01-21T17:24:03.565Z,100344.97
2019-01-21T17:25:58.819Z,100351.99
2019-01-21T17:28:11.519Z,100351.58
2019-01-21T17:30:23.250Z,100361.82
2019-01-21T17:32:32.721Z,100358.48
2019-01-21T17:34:40.176Z,100346.67
2019-01-21T17:37:23.577Z,100353.72
2019-01-21T17:39:27.368Z,100322.53
2019-01-21T17:41:48.110Z,100360.31
2019-01-21T17:44:00.088Z,100359.73
2019-01-21T17:49:06.054Z,100347.04
2019-01-21T17:51:21.145Z,100351.83
2019-01-21T17:53:30.064Z,100350.09
2019-01-21T17:55:40.648Z,100342.98
2019-01-21T17:57:49.902Z,100336.08
2019-01-21T17:59:57.562Z,100341.61
2019-01-21T18:02:04.717Z,100328.78
2019-01-21T18:04:11.936Z,100321.67
2019-01-21T18:06:19.445Z,100317.80
2019-01-21T18:08:27.291Z,100316.87
2019-01-21T18:10:38.975Z,100308.14
2019-01-21T18:12:59.558Z,100303.11
2019-01-21T18:15:33.097Z,100292.83
2019-01-21T18:17:57.746Z,100302.67
2019-01-21T18:23:30.643Z,100310.73
2019-01-21T18:24:54.667Z,100302.09
2019-01-21T18:27:03.622Z,100292.99
2019-01-21T18:29:33.975Z,100287.39
2019-01-21T18:31:43.632Z,100292.30
2019-01-21T18:34:17.098Z,100295.34
2019-01-21T18:36:38.906Z,100281.83
2019-01-21T18:38:48.898Z,100294.77
2019-01-21T18:40:57.477Z,100278.52
2019-01-21T18:43:18.463Z,100279.02
2019-01-21T18:45:26.408Z,100275.43
2019-01-21T18:47:42.638Z,100266.97
2019-01-21T18:49:53.488Z,100260.38
2019-01-21T18:52:07.096Z,100261.57
2019-01-21T18:54:19.384Z,100260.21
2019-01-21T18:56:30.859Z,100257.91
2019-01-21T18:58:38.238Z,100250.39
2019-01-21T19:00:45.631Z,100251.48
2019-01-21T19:02:59.146Z,100247.01
2019-01-21T19:05:09.950Z,100243.45
2019-01-21T19:07:21.399Z,100235.45
2019-01-21T19:09:29.491Z,100230.86
2019-01-21T19:11:38.264Z,100229.70
2019-01-21T19:13:46.132Z,100221.70
2019-01-21T19:15:56.833Z,100236.13
2019-01-21T19:18:05.554Z,100235.54
2019-01-21T19:20:13.838Z,100224.45
2019-01-21T19:22:21.655Z,100224.36
2019-01-21T19:24:32.935Z,100218.24
2019-01-21T19:26:46.171Z,100215.01
2019-01-21T19:29:04.200Z,100210.27
2019-01-21T19:31:11.377Z,100204.58
2019-01-21T19:33:19.543Z,100207.26
2019-01-21T19:35:30.188Z,100204.27
2019-01-21T19:37:37.445Z,100194.66
2019-01-21T19:39:45.245Z,100201.48
2019-01-21T19:41:53.353Z,100185.53
2019-01-21T19:44:00.693Z,100184.84
2019-01-21T19:46:07.812Z,100185.95
2019-01-21T19:48:15.991Z,100187.48
2019-01-21T19:50:28.263Z,100185.98
2019-01-21T19:52:36.997Z,100181.98
2019-01-21T19:54:47.405Z,100186.31
2019-01-21T19:56:57.976Z,100195.89
2019-01-21T19:59:09.209Z,100197.41
2019-01-21T20:02:36.624Z,100193.92
2019-01-21T20:04:12.366Z,100185.09
2019-01-21T20:06:39.069Z,100177.16
2019-01-21T20:08:47.335Z,100171.38
2019-01-21T20:10:55.038Z,100173.87
2019-01-21T20:13:02.331Z,100177.48
2019-01-21T20:18:09.467Z,100164.06
2019-01-21T20:20:20.751Z,100163.75
2019-01-21T20:22:28.209Z,100155.45
2019-01-21T20:24:47.719Z,100159.22
2019-01-21T20:27:09.402Z,100157.95
2019-01-21T20:29:39.781Z,100154.61
2019-01-21T20:31:46.174Z,100156.34
2019-01-21T20:34:17.985Z,100153.83
2019-01-21T20:36:27.094Z,100151.79
2019-01-21T20:38:34.858Z,100153.88
2019-01-21T20:41:07.796Z,100151.42
2019-01-21T20:45:50.032Z,100147.20
2019-01-21T20:48:03.264Z,100148.30
2019-01-21T20:50:13.605Z,100159.67
2019-01-21T20:52:27.485Z,100158.47
2019-01-21T20:54:57.710Z,100145.04
2019-01-21T20:57:29.755Z,100135.09
2019-01-21T20:59:45.206Z,100143.97
2019-01-21T21:02:07.633Z,100141.46
2019-01-21T21:04:28.541Z,100147.97
2019-01-21T21:06:54.230Z,100140.68
2019-01-21T21:09:02.520Z,100156.86
2019-01-21T21:11:22.399Z,100148.77
2019-01-21T21:13:34.692Z,100145.16
2019-01-21T21:18:36.210Z,100136.27
2019-01-21T21:20:59.500Z,100144.23
2019-01-21T21:23:15.458Z,100139.16
2019-01-21T21:25:34.842Z,100136.97
2019-01-21T21:27:49.572Z,100127.13
2019-01-21T21:30:46.028Z,100128.95
2019-01-21T21:35:47.747Z,100121.41
2019-01-21T21:38:02.312Z,100137.86
2019-01-21T21:40:11.197Z,100128.50
2019-01-21T21:42:32.686Z,100127.51
2019-01-21T21:44:59.236Z,100128.80
2019-01-21T21:47:01.294Z,100123.84
2019-01-21T21:49:08.985Z,100126.66
2019-01-21T21:51:35.338Z,100133.53
2019-01-21T21:53:45.431Z,100136.15
2019-01-21T21:56:03.447Z,100134.43
2019-01-21T21:58:10.879Z,100127.15
2019-01-21T22:00:50.004Z,100100.25
2019-01-21T22:03:06.363Z,100101.72
2019-01-21T22:05:22.360Z,100101.70
2019-01-21T22:10:22.877Z,100096.31
2019-01-21T22:12:51.943Z,100081.77
2019-01-21T22:15:07.422Z,100078.31
2019-01-21T22:17:17.458Z,100072.53
2019-01-21T22:19:24.810Z,100069.31
2019-01-21T22:21:33.600Z,100073.22
2019-01-21T22:23:40.842Z,100077.44
2019-01-21T22:25:48.179Z,100073.06
2019-01-21T22:28:09.578Z,100074.16
2019-01-21T22:30:19.157Z,100074.09
2019-01-21T22:32:26.273Z,100061.42
2019-01-21T22:34:34.163Z,100058.54
2019-01-21T22:36:42.290Z,100051.78
2019-01-21T22:38:53.411Z,100051.37
2019-01-21T22:41:05.707Z,100050.08
2019-01-21T22:43:16.692Z,100046.11
2019-01-21T22:45:27.946Z,100036.28
2019-01-21T22:47:36.248Z,100034.95
2019-01-21T22:49:43.064Z,100042.61
2019-01-21T22:51:54.760Z,100030.82
2019-01-21T22:54:01.512Z,100032.13
2019-01-21T22:56:08.319Z,100029.56
2019-01-21T22:58:15.117Z,100038.13
2019-01-21T23:00:53.227Z,100032.62
2019-01-21T23:03:00.058Z,100042.33
2019-01-21T23:05:07.857Z,100028.44
2019-01-21T23:07:14.615Z,100030.97
2019-01-21T23:09:21.427Z,100028.15
2019-01-21T23:11:29.603Z,100029.78
2019-01-21T23:13:36.995Z,100029.86
2019-01-21T23:15:44.249Z,100039.77
2019-01-21T23:17:51.716Z,100039.63
2019-01-21T23:19:58.997Z,100038.73
2019-01-21T23:22:06.896Z,100045.16
2019-01-21T23:24:16.577Z,100036.05
2019-01-21T23:26:22.568Z,100032.28
2019-01-21T23:28:29.544Z,100034.52
2019-01-21T23:30:36.318Z,100038.41
2019-01-21T23:32:43.101Z,100034.61
2019-01-21T23:34:50.271Z,100017.02
2019-01-21T23:36:57.414Z,100022.64
2019-01-21T23:39:07.163Z,100010.21
2019-01-21T23:41:30.976Z,100010.64
2019-01-21T23:43:39.284Z,99994.78
2019-01-21T23:45:46.077Z,99990.70
2019-01-21T23:47:52.864Z,99982.55
2019-01-21T23:49:59.967Z,99984.23
2019-01-21T23:52:06.716Z,99977.34
2019-01-21T23:54:13.641Z,99974.91
2019-01-21T23:56:20.907Z,99970.25
2019-01-21T23:58:27.683Z,99970.73
